Country
Station

 

Weather  for  Boise, Boise Air Terminal  -  United States    United States

  
2 °C (36 °F)
    
 
 

Current METAR for Boise, Boise Air Terminal is :

KBOI 211753Z 13007KT 10SM CLR 02/M03 A3025 RMK AO2 SLP261 T00221028 10022 21039 52011

 

This is a report for Boise, Boise Air Terminal - United States.
 
The report was made 12 minutes ago, at 17:53 UTC .
The wind was blowing at a speed of 3.6 meters per second (8.1 miles per hour) from southeast (130°).
 
The temperature was 2 °C (36 °F), with a dew-point at -3 °C (27 °F).
The temperature felt like -2 °C (30 °F).
 
The atmospheric pressure was 1024 hPa (30.25 inHg).
The relative humidity was 69.4%.
 
The sky was clear.
 
The overall visibility was 16.1 kilometers (10.0 miles).
 

 
 
 
 

Country :   A   B   C   D   E   F   G   H   I   J   K   L   M   N   O   P   Q   R   S   T   U   V   W   Y   Z

 

Site Info  |  Disclaimer  |  Credits  |  Privacy
Contact us  |  Add to favorites
© 2013-2018 METARs - All rights reserved